createdAt,value
2023-02-15T00:00:12.121Z,41.77
2023-02-15T00:02:39.870Z,44.20
2023-02-15T00:05:07.321Z,45.37
2023-02-15T00:07:35.007Z,46.73
2023-02-15T00:10:01.787Z,47.90
2023-02-15T00:12:28.487Z,41.67
2023-02-15T00:14:58.657Z,41.60
2023-02-15T00:17:25.420Z,42.17
2023-02-15T00:19:52.224Z,48.30
2023-02-15T00:22:19.113Z,43.57
2023-02-15T00:24:45.817Z,46.73
2023-02-15T00:27:12.809Z,48.83
2023-02-15T00:29:39.654Z,41.67
2023-02-15T00:32:08.674Z,46.97
2023-02-15T00:34:35.734Z,48.50
2023-02-15T00:37:02.828Z,43.57
2023-02-15T00:39:30.008Z,42.20
2023-02-15T00:41:56.921Z,44.90
2023-02-15T00:44:23.653Z,45.13
2023-02-15T00:46:50.412Z,47.27
2023-02-15T00:49:17.231Z,42.60
2023-02-15T00:51:44.072Z,45.80
2023-02-15T00:54:13.869Z,42.57
2023-02-15T00:56:40.663Z,43.13
2023-02-15T00:59:07.521Z,48.53
2023-02-15T01:01:34.354Z,44.10
2023-02-15T01:04:01.176Z,44.63
2023-02-15T01:06:28.038Z,49.33
2023-02-15T01:08:54.721Z,39.37
2023-02-15T01:11:23.559Z,45.73
2023-02-15T01:13:56.941Z,43.37
2023-02-15T01:16:26.926Z,42.23
2023-02-15T01:18:55.750Z,43.77
2023-02-15T01:21:24.540Z,45.23
2023-02-15T01:23:51.289Z,51.63
2023-02-15T01:26:18.263Z,42.73
2023-02-15T01:28:46.088Z,47.67
2023-02-15T01:31:15.996Z,47.10
2023-02-15T01:33:43.871Z,46.20
2023-02-15T01:36:11.003Z,44.07
2023-02-15T01:38:37.782Z,44.37
2023-02-15T01:41:27.336Z,47.50
2023-02-15T01:44:00.137Z,46.20
2023-02-15T01:46:39.343Z,45.93
2023-02-15T01:49:18.406Z,41.93
2023-02-15T01:51:50.179Z,39.20
2023-02-15T01:54:39.751Z,42.23
2023-02-15T01:57:11.876Z,40.97
2023-02-15T01:59:41.132Z,42.20
2023-02-15T02:02:10.689Z,42.57
2023-02-15T02:04:45.114Z,40.33
2023-02-15T02:07:18.024Z,42.73
2023-02-15T02:09:46.055Z,37.60
2023-02-15T02:12:13.317Z,35.00
2023-02-15T02:14:41.393Z,41.93
2023-02-15T02:17:23.589Z,38.70
2023-02-15T02:20:17.967Z,37.03
2023-02-15T02:23:08.974Z,36.80
2023-02-15T02:25:56.994Z,34.07
2023-02-15T02:28:31.192Z,34.83
2023-02-15T02:30:57.998Z,34.67
2023-02-15T02:33:42.441Z,37.03
2023-02-15T02:36:41.364Z,31.73
2023-02-15T02:39:15.070Z,32.83
2023-02-15T02:42:06.817Z,33.47
2023-02-15T02:44:45.844Z,32.00
2023-02-15T02:47:38.812Z,32.97
2023-02-15T02:50:11.205Z,36.37
2023-02-15T02:52:48.993Z,33.73
2023-02-15T02:55:36.421Z,37.97
2023-02-15T02:58:21.978Z,34.40
2023-02-15T03:00:53.967Z,29.87
2023-02-15T03:03:37.529Z,29.87
2023-02-15T03:06:12.037Z,32.63
2023-02-15T03:08:45.825Z,33.03
2023-02-15T03:11:14.930Z,35.27
2023-02-15T03:13:42.576Z,35.40
2023-02-15T03:16:26.862Z,34.03
2023-02-15T03:19:04.532Z,37.83
2023-02-15T03:21:59.040Z,41.13
2023-02-15T03:24:36.090Z,37.07
2023-02-15T03:27:07.696Z,34.60
2023-02-15T03:29:35.818Z,37.93
2023-02-15T03:32:07.998Z,45.03
2023-02-15T03:34:35.093Z,42.40
2023-02-15T03:37:08.305Z,44.07
2023-02-15T03:39:40.597Z,46.47
2023-02-15T03:42:19.074Z,46.63
2023-02-15T03:44:59.042Z,50.67
2023-02-15T03:47:42.308Z,44.90
2023-02-15T03:50:34.313Z,49.00
2023-02-15T03:53:05.864Z,42.43
2023-02-15T03:55:34.539Z,51.07
2023-02-15T03:58:19.852Z,49.97
2023-02-15T04:01:17.885Z,43.40
2023-02-15T04:03:56.313Z,46.70
2023-02-15T04:06:23.243Z,43.83
2023-02-15T04:09:08.649Z,48.80
2023-02-15T04:11:35.352Z,44.53
2023-02-15T04:14:22.076Z,48.60
2023-02-15T04:16:48.912Z,44.50
2023-02-15T04:19:34.288Z,47.57
2023-02-15T04:22:19.891Z,44.13
2023-02-15T04:25:05.672Z,44.80
2023-02-15T04:27:32.429Z,43.57
2023-02-15T04:29:59.188Z,46.27
2023-02-15T04:32:25.935Z,43.33
2023-02-15T04:34:52.668Z,45.67
2023-02-15T04:37:19.478Z,47.47
2023-02-15T04:39:46.254Z,41.13
2023-02-15T04:42:13.007Z,48.20
2023-02-15T04:44:45.778Z,48.13
2023-02-15T04:47:14.547Z,49.63
2023-02-15T04:49:41.291Z,48.47
2023-02-15T04:52:10.601Z,43.27
2023-02-15T04:54:37.528Z,42.20
2023-02-15T04:57:04.340Z,42.53
2023-02-15T04:59:31.039Z,45.93
2023-02-15T05:01:57.987Z,40.17
2023-02-15T05:04:24.847Z,45.20
2023-02-15T05:06:51.843Z,43.47
2023-02-15T05:09:18.783Z,42.03
2023-02-15T05:11:45.467Z,44.23
2023-02-15T05:14:12.347Z,43.43
2023-02-15T05:16:42.292Z,41.20
2023-02-15T05:19:09.130Z,41.90
2023-02-15T05:21:36.091Z,47.40
2023-02-15T05:24:22.851Z,36.83
2023-02-15T05:27:08.120Z,47.00
2023-02-15T05:29:34.964Z,41.90
2023-02-15T05:32:01.929Z,45.10
2023-02-15T05:34:28.804Z,49.93
2023-02-15T05:36:55.504Z,40.90
2023-02-15T05:39:22.377Z,42.00
2023-02-15T05:41:49.061Z,41.03
2023-02-15T05:44:15.857Z,46.87
2023-02-15T05:46:42.633Z,40.53
2023-02-15T05:49:09.539Z,48.00
2023-02-15T05:51:36.541Z,43.23
2023-02-15T05:54:03.344Z,39.93
2023-02-15T05:56:30.111Z,37.63
2023-02-15T05:58:56.916Z,45.27
2023-02-15T06:01:24.032Z,40.57
2023-02-15T06:03:51.059Z,45.13
2023-02-15T06:06:17.853Z,42.60
2023-02-15T06:08:44.809Z,45.20
2023-02-15T06:11:11.881Z,42.97
2023-02-15T06:13:39.241Z,47.37
2023-02-15T06:16:07.425Z,45.80
2023-02-15T06:18:34.725Z,41.93
2023-02-15T06:21:01.573Z,51.47
2023-02-15T06:23:28.449Z,45.70
2023-02-15T06:25:55.313Z,44.00
2023-02-15T06:28:22.049Z,40.17
2023-02-15T06:30:48.837Z,44.33
2023-02-15T06:33:15.760Z,43.07
2023-02-15T06:35:42.608Z,42.20
2023-02-15T06:38:09.493Z,39.60
2023-02-15T06:40:36.258Z,47.57
2023-02-15T06:43:03.020Z,42.40
2023-02-15T06:45:32.598Z,43.63
2023-02-15T06:47:59.372Z,51.03
2023-02-15T06:50:26.584Z,45.37
2023-02-15T06:52:59.826Z,39.57
2023-02-15T06:55:29.247Z,43.43
2023-02-15T06:57:56.031Z,44.30
2023-02-15T07:00:25.156Z,45.17
2023-02-15T07:02:59.373Z,41.27
2023-02-15T07:05:32.169Z,47.27
2023-02-15T07:08:00.144Z,43.30
2023-02-15T07:10:27.604Z,46.70
2023-02-15T07:12:54.738Z,46.13
2023-02-15T07:15:23.537Z,44.40
2023-02-15T07:17:50.841Z,38.60
2023-02-15T07:20:23.417Z,42.93
2023-02-15T07:22:50.995Z,45.90
2023-02-15T07:25:18.338Z,49.07
2023-02-15T07:27:45.905Z,43.27
2023-02-15T07:30:16.856Z,41.80
2023-02-15T07:33:05.862Z,45.03
2023-02-15T07:35:42.169Z,46.13
2023-02-15T07:38:10.984Z,46.87
2023-02-15T07:40:37.662Z,46.17
2023-02-15T07:43:04.456Z,46.70
2023-02-15T07:45:31.387Z,46.97
2023-02-15T07:47:58.329Z,44.00
2023-02-15T07:50:28.205Z,44.03
2023-02-15T07:52:55.069Z,52.57
2023-02-15T07:55:25.743Z,50.20
2023-02-15T07:57:54.912Z,52.53
2023-02-15T08:00:26.050Z,50.63
2023-02-15T08:03:15.205Z,51.37
2023-02-15T08:05:44.230Z,49.80
2023-02-15T08:08:30.637Z,58.60
2023-02-15T08:11:20.213Z,48.57
2023-02-15T08:13:54.724Z,50.60
2023-02-15T08:16:41.962Z,49.63
2023-02-15T08:19:20.582Z,56.17
2023-02-15T08:21:49.680Z,53.97
2023-02-15T08:24:23.447Z,55.07
2023-02-15T08:26:51.556Z,59.13
2023-02-15T08:29:24.828Z,61.87
2023-02-15T08:31:55.187Z,57.00
2023-02-15T08:34:22.280Z,58.63
2023-02-15T08:36:51.391Z,59.03
2023-02-15T08:39:18.395Z,73.17
2023-02-15T08:41:47.121Z,62.40
2023-02-15T08:44:15.960Z,56.70
2023-02-15T08:46:44.392Z,54.73
2023-02-15T08:49:17.021Z,47.97
2023-02-15T08:51:43.942Z,52.07
2023-02-15T08:54:14.898Z,50.53
2023-02-15T08:56:46.266Z,45.93
2023-02-15T08:59:16.362Z,42.87
2023-02-15T09:01:43.566Z,43.47
2023-02-15T09:04:11.227Z,42.57
2023-02-15T09:06:39.581Z,47.73
2023-02-15T09:09:07.554Z,43.67
2023-02-15T09:11:39.178Z,46.50
2023-02-15T09:14:09.196Z,49.30
2023-02-15T09:16:38.874Z,44.23
2023-02-15T09:19:06.631Z,42.03
2023-02-15T09:21:37.869Z,44.20
2023-02-15T09:24:07.535Z,46.40
2023-02-15T09:26:36.988Z,45.30
2023-02-15T09:29:04.861Z,44.03
2023-02-15T09:31:43.533Z,43.37
2023-02-15T09:34:10.653Z,44.50
2023-02-15T09:36:39.802Z,44.03
2023-02-15T09:39:24.811Z,41.47
2023-02-15T09:42:12.954Z,40.77
2023-02-15T09:44:58.598Z,41.63
2023-02-15T09:47:34.573Z,44.77
2023-02-15T09:50:27.795Z,41.87
2023-02-15T09:53:13.128Z,42.20
2023-02-15T09:56:01.509Z,39.27
2023-02-15T09:58:47.565Z,44.77
2023-02-15T10:01:36.206Z,43.90
2023-02-15T10:04:25.446Z,44.07
2023-02-15T10:07:00.655Z,43.67
2023-02-15T10:09:39.016Z,44.80
2023-02-15T10:12:21.736Z,41.33
2023-02-15T10:15:08.151Z,45.07
2023-02-15T10:17:59.142Z,39.93
2023-02-15T10:20:44.422Z,41.97
2023-02-15T10:23:35.720Z,46.10
2023-02-15T10:26:02.825Z,36.63
2023-02-15T10:28:50.469Z,35.47
2023-02-15T10:31:26.494Z,40.50
2023-02-15T10:34:18.227Z,40.00
2023-02-15T10:36:58.801Z,41.60
2023-02-15T10:39:39.507Z,39.97
2023-02-15T10:42:25.129Z,40.27
2023-02-15T10:45:35.443Z,42.20
2023-02-15T10:48:23.119Z,39.97
2023-02-15T10:50:56.506Z,37.87
2023-02-15T10:53:26.123Z,40.83
2023-02-15T10:56:05.087Z,37.57
2023-02-15T10:59:09.277Z,43.43
2023-02-15T11:01:45.574Z,35.73
2023-02-15T11:04:57.501Z,39.17
2023-02-15T11:07:41.829Z,38.90
2023-02-15T11:10:17.314Z,39.63
2023-02-15T11:12:46.746Z,37.53
2023-02-15T11:15:27.315Z,43.60
2023-02-15T11:18:01.722Z,39.80
2023-02-15T11:20:51.108Z,40.23
2023-02-15T11:23:19.367Z,39.63
2023-02-15T11:25:54.637Z,39.40
2023-02-15T11:28:30.772Z,39.33
2023-02-15T11:31:01.737Z,41.97
2023-02-15T11:33:36.383Z,40.87
2023-02-15T11:36:15.320Z,40.50
2023-02-15T11:38:44.756Z,36.67
2023-02-15T11:41:15.928Z,40.67
2023-02-15T11:44:24.363Z,41.27
2023-02-15T11:46:51.345Z,41.07
2023-02-15T11:49:26.606Z,37.57
2023-02-15T11:51:54.654Z,39.80
2023-02-15T11:54:29.416Z,41.43
2023-02-15T11:57:00.416Z,42.93
2023-02-15T11:59:37.832Z,41.27
2023-02-15T12:02:17.296Z,41.60
2023-02-15T12:05:06.193Z,39.57
2023-02-15T12:07:42.722Z,39.60
2023-02-15T12:10:34.063Z,42.93
2023-02-15T12:13:11.269Z,39.07
2023-02-15T12:15:41.718Z,39.90
2023-02-15T12:18:22.303Z,42.20
2023-02-15T12:20:50.885Z,42.93
2023-02-15T12:23:18.934Z,38.37
2023-02-15T12:25:55.826Z,38.20
2023-02-15T12:28:34.210Z,41.23
2023-02-15T12:31:03.390Z,40.57
2023-02-15T12:33:36.230Z,41.80
2023-02-15T12:36:29.345Z,40.97
2023-02-15T12:39:18.337Z,37.67
2023-02-15T12:41:47.480Z,41.37
2023-02-15T12:44:20.764Z,45.40
2023-02-15T12:47:16.448Z,39.00
2023-02-15T12:49:47.568Z,43.00
2023-02-15T12:52:21.285Z,41.17
2023-02-15T12:54:48.861Z,40.57
2023-02-15T12:57:26.782Z,44.87
2023-02-15T13:00:04.081Z,38.43
2023-02-15T13:02:44.547Z,41.40
2023-02-15T13:05:14.714Z,40.47
2023-02-15T13:07:47.149Z,38.20
2023-02-15T13:10:36.193Z,43.10
2023-02-15T13:13:10.065Z,41.83
2023-02-15T13:15:40.057Z,40.37
2023-02-15T13:18:17.270Z,41.70
2023-02-15T13:20:46.167Z,40.07
2023-02-15T13:23:30.332Z,39.83
2023-02-15T13:26:03.869Z,40.67
2023-02-15T13:28:48.038Z,39.70
2023-02-15T13:31:24.790Z,40.77
2023-02-15T13:34:02.814Z,39.03
2023-02-15T13:36:50.488Z,38.70
2023-02-15T13:39:30.334Z,39.53
2023-02-15T13:42:24.292Z,35.97
2023-02-15T13:45:17.626Z,42.03
2023-02-15T13:47:50.967Z,36.40
2023-02-15T13:50:30.175Z,37.07
2023-02-15T13:53:12.253Z,37.07
2023-02-15T13:55:48.076Z,39.90
2023-02-15T13:58:17.817Z,37.33
2023-02-15T14:00:44.589Z,40.93
2023-02-15T14:03:26.680Z,41.63
2023-02-15T14:06:21.488Z,41.20
2023-02-15T14:08:54.231Z,38.07
2023-02-15T14:11:24.001Z,37.00
2023-02-15T14:14:14.566Z,38.70
2023-02-15T14:17:07.839Z,43.17
2023-02-15T14:19:53.713Z,39.37
2023-02-15T14:22:40.719Z,41.83
2023-02-15T14:25:37.742Z,38.40
2023-02-15T14:28:31.118Z,35.07
2023-02-15T14:31:05.510Z,38.20
2023-02-15T14:33:41.661Z,37.97
2023-02-15T14:36:13.249Z,37.40
2023-02-15T14:38:58.617Z,41.23
2023-02-15T14:41:48.248Z,41.37
2023-02-15T14:44:39.035Z,39.57
2023-02-15T14:47:16.755Z,39.47
2023-02-15T14:49:43.552Z,43.30
2023-02-15T14:52:12.505Z,38.97
2023-02-15T14:54:41.873Z,41.80
2023-02-15T14:57:08.570Z,39.23
2023-02-15T14:59:53.829Z,38.70
2023-02-15T15:02:27.941Z,40.03
2023-02-15T15:05:10.592Z,41.47
2023-02-15T15:07:47.498Z,37.77
2023-02-15T15:10:17.239Z,43.47
2023-02-15T15:12:45.668Z,36.80
2023-02-15T15:15:33.074Z,42.20
2023-02-15T15:18:08.076Z,41.63
2023-02-15T15:20:52.030Z,39.27
2023-02-15T15:23:19.031Z,42.00
2023-02-15T15:25:58.903Z,39.10
2023-02-15T15:28:34.715Z,39.63
2023-02-15T15:31:19.892Z,39.53
2023-02-15T15:34:08.385Z,37.67
2023-02-15T15:36:57.439Z,39.67
2023-02-15T15:39:42.016Z,40.57
2023-02-15T15:42:23.428Z,39.60
2023-02-15T15:45:04.952Z,41.70
2023-02-15T15:47:44.662Z,41.70
2023-02-15T15:50:18.092Z,38.50
2023-02-15T15:52:51.453Z,41.77
2023-02-15T15:55:21.413Z,45.30
2023-02-15T15:57:58.280Z,40.23
2023-02-15T16:00:39.892Z,44.07
2023-02-15T16:03:06.914Z,37.93
2023-02-15T16:05:40.480Z,42.70
2023-02-15T16:08:07.383Z,41.57
2023-02-15T16:10:36.904Z,42.37
2023-02-15T16:13:03.912Z,42.23
2023-02-15T16:15:50.856Z,36.57
2023-02-15T16:18:18.724Z,42.97
2023-02-15T16:21:03.030Z,44.40
2023-02-15T16:23:35.879Z,44.77
2023-02-15T16:26:13.697Z,41.50
2023-02-15T16:28:40.802Z,42.53
2023-02-15T16:31:15.847Z,40.63
2023-02-15T16:33:46.143Z,42.13
2023-02-15T16:36:27.788Z,43.70
2023-02-15T16:38:57.426Z,40.87
2023-02-15T16:41:28.273Z,44.60
2023-02-15T16:43:58.053Z,45.57
2023-02-15T16:46:36.525Z,40.20
2023-02-15T16:49:25.423Z,41.47
2023-02-15T16:52:03.696Z,43.07
2023-02-15T16:54:32.366Z,45.83
2023-02-15T16:56:59.888Z,46.37
2023-02-15T16:59:32.706Z,43.97
2023-02-15T17:01:59.528Z,47.83
2023-02-15T17:04:31.663Z,43.57
2023-02-15T17:07:02.390Z,43.10
2023-02-15T17:09:32.897Z,43.77
2023-02-15T17:12:03.451Z,40.90
2023-02-15T17:14:32.392Z,43.23
2023-02-15T17:17:08.127Z,46.80
2023-02-15T17:19:43.670Z,42.43
2023-02-15T17:22:21.161Z,49.47
2023-02-15T17:24:49.747Z,47.17
2023-02-15T17:27:22.917Z,44.73
2023-02-15T17:29:53.076Z,45.63
2023-02-15T17:32:23.475Z,46.53
2023-02-15T17:35:09.086Z,43.63
2023-02-15T17:37:38.822Z,42.37
2023-02-15T17:40:25.627Z,43.10
2023-02-15T17:42:53.308Z,46.60
2023-02-15T17:45:20.817Z,51.20
2023-02-15T17:47:50.974Z,44.57
2023-02-15T17:50:23.558Z,46.20
2023-02-15T17:52:51.928Z,45.03
2023-02-15T17:55:36.136Z,45.37
2023-02-15T17:58:11.881Z,47.97
2023-02-15T18:01:03.435Z,44.90
2023-02-15T18:04:02.850Z,44.73
2023-02-15T18:06:48.839Z,46.70
2023-02-15T18:09:36.189Z,49.90
2023-02-15T18:12:12.129Z,45.20
2023-02-15T18:14:39.245Z,48.13
2023-02-15T18:17:10.833Z,46.67
2023-02-15T18:19:38.129Z,44.07
2023-02-15T18:22:15.432Z,43.40
2023-02-15T18:24:42.893Z,46.97
2023-02-15T18:27:13.961Z,44.63
2023-02-15T18:29:41.054Z,51.07
2023-02-15T18:32:14.294Z,49.30
2023-02-15T18:34:45.134Z,49.43
2023-02-15T18:37:16.926Z,49.00
2023-02-15T18:39:46.866Z,49.07
2023-02-15T18:42:34.312Z,47.33
2023-02-15T18:45:07.774Z,44.80
2023-02-15T18:47:35.618Z,47.07
2023-02-15T18:50:02.439Z,48.47
2023-02-15T18:52:37.748Z,47.50
2023-02-15T18:55:20.675Z,50.90
2023-02-15T18:57:49.646Z,48.03
2023-02-15T19:00:17.392Z,44.67
2023-02-15T19:02:44.560Z,49.13
2023-02-15T19:05:16.135Z,47.07
2023-02-15T19:07:45.341Z,49.37
2023-02-15T19:10:19.284Z,50.13
2023-02-15T19:12:46.778Z,48.27
2023-02-15T19:15:20.603Z,52.27
2023-02-15T19:17:52.894Z,49.17
2023-02-15T19:20:22.803Z,52.07
2023-02-15T19:22:52.076Z,51.63
2023-02-15T19:25:28.758Z,52.03
2023-02-15T19:27:57.239Z,48.40
2023-02-15T19:30:29.810Z,51.00
2023-02-15T19:32:57.915Z,55.23
2023-02-15T19:35:29.232Z,53.23
2023-02-15T19:38:01.524Z,51.50
2023-02-15T19:40:31.735Z,49.87
2023-02-15T19:43:01.122Z,47.77
2023-02-15T19:45:30.758Z,51.47
2023-02-15T19:47:59.983Z,45.57
2023-02-15T19:50:29.862Z,54.60
2023-02-15T19:52:58.197Z,53.13
2023-02-15T19:55:29.424Z,53.67
2023-02-15T19:57:59.001Z,54.30
2023-02-15T20:00:29.902Z,55.13
2023-02-15T20:02:59.385Z,53.50
2023-02-15T20:05:28.888Z,50.77
2023-02-15T20:07:56.324Z,51.87
2023-02-15T20:10:32.090Z,52.40
2023-02-15T20:12:59.220Z,57.30
2023-02-15T20:15:29.041Z,55.47
2023-02-15T20:17:57.586Z,58.17
2023-02-15T20:20:28.983Z,55.60
2023-02-15T20:22:56.012Z,58.10
2023-02-15T20:25:28.969Z,55.43
2023-02-15T20:27:58.076Z,51.00
2023-02-15T20:30:32.655Z,53.23
2023-02-15T20:32:59.466Z,58.37
2023-02-15T20:35:28.827Z,52.50
2023-02-15T20:37:59.613Z,56.77
2023-02-15T20:40:29.647Z,55.33
2023-02-15T20:42:57.019Z,53.80
2023-02-15T20:45:26.597Z,56.03
2023-02-15T20:47:53.887Z,57.27
2023-02-15T20:50:26.705Z,58.93
2023-02-15T20:52:56.631Z,58.33
2023-02-15T20:55:33.421Z,53.63
2023-02-15T20:58:00.327Z,56.07
2023-02-15T21:00:31.330Z,52.93
2023-02-15T21:03:00.164Z,52.87
2023-02-15T21:05:34.950Z,55.10
2023-02-15T21:08:02.050Z,54.23
2023-02-15T21:10:34.256Z,55.23
2023-02-15T21:13:01.327Z,56.07
2023-02-15T21:15:36.225Z,57.90
2023-02-15T21:18:06.375Z,56.00
2023-02-15T21:20:34.676Z,52.70
2023-02-15T21:23:04.850Z,56.23
2023-02-15T21:25:37.080Z,55.53
2023-02-15T21:28:09.576Z,58.20
2023-02-15T21:30:39.061Z,59.40
2023-02-15T21:33:05.863Z,56.43
2023-02-15T21:35:32.586Z,55.93
2023-02-15T21:37:59.298Z,55.83
2023-02-15T21:40:31.503Z,57.20
2023-02-15T21:43:17.416Z,57.30
2023-02-15T21:46:02.813Z,56.90
2023-02-15T21:48:29.560Z,55.97
2023-02-15T21:51:14.722Z,58.30
2023-02-15T21:53:45.967Z,59.63
2023-02-15T21:56:16.920Z,57.97
2023-02-15T21:58:43.916Z,55.97
2023-02-15T22:01:24.632Z,62.17
2023-02-15T22:03:53.338Z,58.20
2023-02-15T22:06:20.124Z,61.20
2023-02-15T22:08:50.235Z,56.67
2023-02-15T22:11:20.842Z,57.80
2023-02-15T22:13:48.710Z,59.83
2023-02-15T22:16:23.046Z,58.70
2023-02-15T22:18:49.860Z,59.97
2023-02-15T22:21:17.958Z,63.60
2023-02-15T22:23:44.690Z,57.90
2023-02-15T22:26:25.453Z,59.97
2023-02-15T22:28:52.534Z,59.97
2023-02-15T22:31:22.760Z,65.67
2023-02-15T22:33:52.341Z,66.33
2023-02-15T22:36:28.621Z,59.57
2023-02-15T22:38:56.211Z,54.93
2023-02-15T22:41:26.869Z,63.33
2023-02-15T22:43:53.723Z,65.17
2023-02-15T22:46:26.235Z,59.50
2023-02-15T22:48:53.578Z,61.37
2023-02-15T22:51:24.220Z,60.40
2023-02-15T22:53:52.430Z,58.07
2023-02-15T22:56:26.759Z,64.13
2023-02-15T22:58:59.788Z,57.23
2023-02-15T23:01:35.430Z,56.63
2023-02-15T23:04:03.794Z,63.73
2023-02-15T23:06:31.471Z,54.73
2023-02-15T23:09:00.706Z,63.77
2023-02-15T23:11:27.623Z,64.43
2023-02-15T23:13:54.559Z,59.13
2023-02-15T23:16:24.070Z,65.63
2023-02-15T23:18:51.090Z,60.53
2023-02-15T23:21:34.028Z,55.87
2023-02-15T23:24:26.581Z,68.57
2023-02-15T23:26:56.682Z,59.23
2023-02-15T23:29:24.098Z,60.37
2023-02-15T23:31:53.469Z,61.17
2023-02-15T23:34:31.750Z,62.33
2023-02-15T23:36:58.580Z,60.87
2023-02-15T23:39:46.026Z,62.03
2023-02-15T23:42:21.302Z,57.33
2023-02-15T23:44:48.664Z,61.17
2023-02-15T23:47:45.659Z,56.63
2023-02-15T23:50:24.280Z,60.07
2023-02-15T23:52:52.392Z,64.50
2023-02-15T23:55:19.692Z,59.20
2023-02-15T23:57:46.938Z,66.53
